createdAt,value
2023-03-02T00:00:16.087Z,102632.22
2023-03-02T00:00:48.086Z,102627.09
2023-03-02T00:01:20.506Z,102637.06
2023-03-02T00:02:01.988Z,102640.00
2023-03-02T00:02:33.763Z,102638.38
2023-03-02T00:03:06.685Z,102637.56
2023-03-02T00:03:41.104Z,102636.50
2023-03-02T00:04:37.858Z,102637.31
2023-03-02T00:05:10.908Z,102636.50
2023-03-02T00:05:42.322Z,102645.34
2023-03-02T00:06:13.827Z,102645.63
2023-03-02T00:06:45.276Z,102635.94
2023-03-02T00:07:21.266Z,102637.06
2023-03-02T00:07:54.596Z,102637.81
2023-03-02T00:08:27.251Z,102640.00
2023-03-02T00:09:03.014Z,102636.25
2023-03-02T00:09:35.227Z,102640.50
2023-03-02T00:10:07.852Z,102634.38
2023-03-02T00:10:39.390Z,102631.94
2023-03-02T00:11:11.329Z,102637.31
2023-03-02T00:11:43.234Z,102638.94
2023-03-02T00:12:16.036Z,102629.53
2023-03-02T00:12:47.547Z,102639.72
2023-03-02T00:13:19.096Z,102634.88
2023-03-02T00:13:50.564Z,102640.81
2023-03-02T00:14:21.966Z,102636.25
2023-03-02T00:14:53.342Z,102628.72
2023-03-02T00:15:25.012Z,102628.72
2023-03-02T00:15:56.568Z,102623.91
2023-03-02T00:16:27.963Z,102626.59
2023-03-02T00:16:59.500Z,102634.38
2023-03-02T00:17:30.932Z,102631.69
2023-03-02T00:18:02.362Z,102627.41
2023-03-02T00:18:33.688Z,102624.44
2023-03-02T00:19:05.142Z,102626.84
2023-03-02T00:19:37.700Z,102626.31
2023-03-02T00:20:10.460Z,102636.25
2023-03-02T00:20:41.841Z,102622.56
2023-03-02T00:21:13.273Z,102622.56
2023-03-02T00:21:44.637Z,102624.41
2023-03-02T00:22:16.171Z,102613.16
2023-03-02T00:22:48.225Z,102620.69
2023-03-02T00:23:19.667Z,102615.81
2023-03-02T00:23:52.354Z,102623.34
2023-03-02T00:24:23.758Z,102619.56
2023-03-02T00:24:55.107Z,102625.50
2023-03-02T00:25:26.491Z,102615.03
2023-03-02T00:25:57.914Z,102610.22
2023-03-02T00:26:32.734Z,102620.94
2023-03-02T00:27:04.257Z,102619.31
2023-03-02T00:27:36.176Z,102630.03
2023-03-02T00:28:07.540Z,102625.19
2023-03-02T00:28:38.931Z,102622.25
2023-03-02T00:29:10.260Z,102623.06
2023-03-02T00:29:42.240Z,102619.84
2023-03-02T00:30:14.801Z,102620.66
2023-03-02T00:30:46.150Z,102613.13
2023-03-02T00:31:17.601Z,102617.97
2023-03-02T00:31:49.036Z,102620.66
2023-03-02T00:32:21.517Z,102622.50
2023-03-02T00:32:52.911Z,102621.72
2023-03-02T00:33:24.367Z,102615.78
2023-03-02T00:33:55.825Z,102623.31
2023-03-02T00:34:27.311Z,102614.19
2023-03-02T00:34:58.711Z,102625.19
2023-03-02T00:35:30.376Z,102622.25
2023-03-02T00:36:02.087Z,102627.63
2023-03-02T00:36:33.679Z,102620.38
2023-03-02T00:37:05.087Z,102613.66
2023-03-02T00:37:36.956Z,102623.88
2023-03-02T00:38:08.454Z,102619.84
2023-03-02T00:38:39.933Z,102627.09
2023-03-02T00:39:11.314Z,102620.13
2023-03-02T00:39:42.855Z,102616.09
2023-03-02T00:40:14.598Z,102621.75
2023-03-02T00:40:47.651Z,102625.22
2023-03-02T00:41:21.587Z,102625.50
2023-03-02T00:41:53.048Z,102628.97
2023-03-02T00:42:24.644Z,102621.75
2023-03-02T00:42:56.023Z,102618.25
2023-03-02T00:43:28.018Z,102615.81
2023-03-02T00:43:59.442Z,102621.47
2023-03-02T00:44:30.879Z,102615.56
2023-03-02T00:45:03.000Z,102618.00
2023-03-02T00:45:34.436Z,102626.59
2023-03-02T00:46:10.971Z,102618.28
2023-03-02T00:46:42.356Z,102621.22
2023-03-02T00:47:13.796Z,102610.22
2023-03-02T00:47:45.212Z,102616.13
2023-03-02T00:48:16.645Z,102610.50
2023-03-02T00:48:48.410Z,102605.66
2023-03-02T00:49:19.792Z,102620.97
2023-03-02T00:49:51.149Z,102616.66
2023-03-02T00:50:22.541Z,102603.53
2023-03-02T00:50:53.970Z,102613.69
2023-03-02T00:51:25.635Z,102619.88
2023-03-02T00:51:57.068Z,102616.13
2023-03-02T00:52:32.327Z,102615.88
2023-03-02T00:53:05.071Z,102612.63
2023-03-02T00:53:37.287Z,102614.50
2023-03-02T00:54:08.875Z,102611.31
2023-03-02T00:54:40.447Z,102617.47
2023-03-02T00:55:11.991Z,102614.25
2023-03-02T00:55:53.228Z,102608.06
2023-03-02T00:56:24.571Z,102623.91
2023-03-02T00:56:55.968Z,102614.25
2023-03-02T00:57:27.902Z,102621.22
2023-03-02T00:57:59.352Z,102619.59
2023-03-02T00:58:31.278Z,102621.22
2023-03-02T00:59:28.204Z,102631.94
2023-03-02T00:59:59.778Z,102618.00
2023-03-02T01:00:34.161Z,102621.47
2023-03-02T01:01:08.799Z,102619.88
2023-03-02T01:01:40.233Z,102620.69
2023-03-02T01:02:11.805Z,102626.59
2023-03-02T01:02:44.630Z,102616.13
2023-03-02T01:03:16.161Z,102621.47
2023-03-02T01:03:47.519Z,102622.56
2023-03-02T01:04:18.894Z,102618.00
2023-03-02T01:04:50.571Z,102618.81
2023-03-02T01:05:21.907Z,102623.34
2023-03-02T01:05:56.226Z,102624.16
2023-03-02T01:06:27.653Z,102619.31
2023-03-02T01:07:01.217Z,102627.66
2023-03-02T01:07:33.326Z,102619.06
2023-03-02T01:08:05.045Z,102624.69
2023-03-02T01:08:38.373Z,102623.06
2023-03-02T01:09:10.612Z,102627.09
2023-03-02T01:09:43.772Z,102623.34
2023-03-02T01:10:15.765Z,102630.34
2023-03-02T01:10:47.181Z,102631.94
2023-03-02T01:11:21.849Z,102628.72
2023-03-02T01:11:53.448Z,102626.84
2023-03-02T01:12:24.783Z,102615.03
2023-03-02T01:12:56.248Z,102620.13
2023-03-02T01:13:28.224Z,102621.75
2023-03-02T01:13:59.561Z,102620.94
2023-03-02T01:14:31.764Z,102611.00
2023-03-02T01:15:04.900Z,102619.31
2023-03-02T01:15:36.397Z,102616.38
2023-03-02T01:16:08.108Z,102617.19
2023-03-02T01:16:39.543Z,102619.06
2023-03-02T01:17:11.811Z,102611.00
2023-03-02T01:17:43.918Z,102607.53
2023-03-02T01:18:15.562Z,102608.34
2023-03-02T01:18:46.963Z,102623.34
2023-03-02T01:19:18.854Z,102611.81
2023-03-02T01:19:50.375Z,102606.19
2023-03-02T01:20:21.741Z,102611.81
2023-03-02T01:21:01.795Z,102613.69
2023-03-02T01:21:33.359Z,102606.72
2023-03-02T01:22:05.336Z,102616.94
2023-03-02T01:22:36.779Z,102604.84
2023-03-02T01:23:08.156Z,102611.56
2023-03-02T01:23:39.602Z,102600.81
2023-03-02T01:24:11.318Z,102618.00
2023-03-02T01:24:42.741Z,102611.53
2023-03-02T01:25:14.365Z,102610.75
2023-03-02T01:25:45.866Z,102611.81
2023-03-02T01:26:17.187Z,102612.63
2023-03-02T01:26:48.764Z,102607.53
2023-03-02T01:27:20.575Z,102597.06
2023-03-02T01:27:52.207Z,102613.69
2023-03-02T01:28:24.095Z,102602.44
2023-03-02T01:28:55.605Z,102605.09
2023-03-02T01:29:26.934Z,102607.53
2023-03-02T01:29:58.329Z,102602.16
2023-03-02T01:30:29.662Z,102602.97
2023-03-02T01:31:04.656Z,102604.84
2023-03-02T01:31:36.268Z,102600.28
2023-03-02T01:32:08.800Z,102604.59
2023-03-02T01:32:40.327Z,102611.00
2023-03-02T01:33:11.924Z,102608.34
2023-03-02T01:33:43.240Z,102606.47
2023-03-02T01:34:14.686Z,102600.84
2023-03-02T01:34:46.034Z,102607.00
2023-03-02T01:35:17.658Z,102597.34
2023-03-02T01:35:49.635Z,102597.91
2023-03-02T01:36:22.042Z,102604.88
2023-03-02T01:36:53.666Z,102605.13
2023-03-02T01:37:25.023Z,102611.03
2023-03-02T01:37:56.410Z,102603.78
2023-03-02T01:38:27.902Z,102597.63
2023-03-02T01:38:59.486Z,102602.97
2023-03-02T01:39:30.854Z,102601.09
2023-03-02T01:40:05.665Z,102601.09
2023-03-02T01:40:37.166Z,102595.75
2023-03-02T01:41:09.301Z,102599.22
2023-03-02T01:41:40.679Z,102602.19
2023-03-02T01:42:12.226Z,102597.34
2023-03-02T01:42:51.896Z,102594.94
2023-03-02T01:43:23.385Z,102594.94
2023-03-02T01:43:54.867Z,102597.63
2023-03-02T01:44:57.229Z,102600.28
2023-03-02T01:45:57.206Z,102595.22
2023-03-02T01:46:35.093Z,102598.16
2023-03-02T01:47:14.136Z,102591.19
2023-03-02T01:47:45.549Z,102590.09
2023-03-02T01:48:21.729Z,102593.56
2023-03-02T01:49:02.750Z,102596.25
2023-03-02T01:49:37.366Z,102592.78
2023-03-02T01:50:21.127Z,102597.88
2023-03-02T01:50:53.681Z,102594.66
2023-03-02T01:51:27.880Z,102589.28
2023-03-02T01:52:00.157Z,102593.84
2023-03-02T01:52:35.102Z,102593.84
2023-03-02T01:53:07.310Z,102592.22
2023-03-02T01:53:38.716Z,102584.44
2023-03-02T01:54:17.131Z,102595.97
2023-03-02T01:54:50.459Z,102586.06
2023-03-02T01:55:25.822Z,102591.97
2023-03-02T01:55:59.042Z,102584.19
2023-03-02T01:56:36.132Z,102593.84
2023-03-02T01:57:08.757Z,102584.19
2023-03-02T01:57:46.085Z,102588.19
2023-03-02T01:58:18.255Z,102590.59
2023-03-02T01:58:52.609Z,102594.34
2023-03-02T01:59:25.059Z,102588.19
2023-03-02T02:00:01.287Z,102603.47
2023-03-02T02:00:37.757Z,102596.47
2023-03-02T02:01:15.330Z,102596.19
2023-03-02T02:01:54.373Z,102598.63
2023-03-02T02:02:26.542Z,102600.22
2023-03-02T02:03:08.839Z,102597.53
2023-03-02T02:03:40.325Z,102596.47
2023-03-02T02:04:13.230Z,102586.56
2023-03-02T02:04:47.636Z,102603.47
2023-03-02T02:05:23.997Z,102595.16
2023-03-02T02:06:09.076Z,102597.28
2023-03-02T02:06:48.635Z,102598.66
2023-03-02T02:07:20.595Z,102597.03
2023-03-02T02:07:51.946Z,102597.84
2023-03-02T02:08:24.144Z,102594.59
2023-03-02T02:08:58.123Z,102594.34
2023-03-02T02:09:36.298Z,102590.59
2023-03-02T02:10:08.405Z,102588.97
2023-03-02T02:10:40.339Z,102591.66
2023-03-02T02:11:12.678Z,102597.03
2023-03-02T02:11:44.273Z,102593.81
2023-03-02T02:12:19.260Z,102588.44
2023-03-02T02:12:50.641Z,102593.00
2023-03-02T02:13:22.593Z,102590.56
2023-03-02T02:13:57.283Z,102586.81
2023-03-02T02:14:29.054Z,102589.75
2023-03-02T02:15:01.612Z,102589.50
2023-03-02T02:15:33.240Z,102588.97
2023-03-02T02:16:05.476Z,102583.34
2023-03-02T02:16:38.118Z,102589.50
2023-03-02T02:17:10.215Z,102595.69
2023-03-02T02:17:42.244Z,102584.94
2023-03-02T02:18:13.991Z,102584.41
2023-03-02T02:18:45.373Z,102588.69
2023-03-02T02:19:43.018Z,102587.09
2023-03-02T02:20:24.148Z,102588.97
2023-03-02T02:20:56.119Z,102580.38
2023-03-02T02:21:28.634Z,102583.34
2023-03-02T02:22:00.001Z,102576.91
2023-03-02T02:22:48.093Z,102584.94
2023-03-02T02:23:38.139Z,102579.03
2023-03-02T02:24:14.692Z,102578.22
2023-03-02T02:24:51.658Z,102583.59
2023-03-02T02:25:43.740Z,102573.38
2023-03-02T02:26:28.575Z,102572.59
2023-03-02T02:27:01.276Z,102578.50
2023-03-02T02:27:33.594Z,102577.16
2023-03-02T02:28:09.158Z,102577.97
2023-03-02T02:28:48.199Z,102579.84
2023-03-02T02:29:27.946Z,102571.81
2023-03-02T02:30:03.209Z,102574.50
2023-03-02T02:30:38.013Z,102579.03
2023-03-02T02:31:17.908Z,102581.72
2023-03-02T02:32:18.058Z,102575.28
2023-03-02T02:32:50.470Z,102577.44
2023-03-02T02:33:25.091Z,102577.44
2023-03-02T02:34:02.023Z,102572.88
2023-03-02T02:34:42.330Z,102585.22
2023-03-02T02:35:21.349Z,102577.16
2023-03-02T02:36:01.796Z,102582.28
2023-03-02T02:36:40.783Z,102576.09
2023-03-02T02:37:16.861Z,102575.28
2023-03-02T02:37:52.516Z,102576.91
2023-03-02T02:38:25.041Z,102574.50
2023-03-02T02:38:56.887Z,102569.38
2023-03-02T02:39:32.677Z,102572.88
2023-03-02T02:40:09.634Z,102572.63
2023-03-02T02:40:48.131Z,102579.59
2023-03-02T02:41:24.808Z,102566.44
2023-03-02T02:41:59.138Z,102574.22
2023-03-02T02:42:34.375Z,102578.78
2023-03-02T02:43:06.990Z,102579.59
2023-03-02T02:43:38.466Z,102576.09
2023-03-02T02:44:15.849Z,102576.09
2023-03-02T02:44:47.663Z,102572.31
2023-03-02T02:45:27.015Z,102572.31
2023-03-02T02:45:59.906Z,102565.38
2023-03-02T02:46:33.000Z,102572.31
2023-03-02T02:47:14.998Z,102568.88
2023-03-02T02:47:46.570Z,102567.78
2023-03-02T02:48:21.054Z,102569.38
2023-03-02T02:48:53.627Z,102569.66
2023-03-02T02:49:40.288Z,102568.59
2023-03-02T02:50:25.163Z,102567.78
2023-03-02T02:51:01.482Z,102569.13
2023-03-02T02:51:33.627Z,102568.06
2023-03-02T02:52:06.315Z,102571.00
2023-03-02T02:52:40.906Z,102571.00
2023-03-02T02:53:17.940Z,102572.88
2023-03-02T02:54:00.868Z,102566.97
2023-03-02T02:54:34.711Z,102563.47
2023-03-02T02:55:06.593Z,102569.66
2023-03-02T02:55:39.677Z,102561.88
2023-03-02T02:56:13.559Z,102568.03
2023-03-02T02:56:46.696Z,102561.06
2023-03-02T02:57:19.414Z,102561.88
2023-03-02T02:57:54.803Z,102561.88
2023-03-02T02:58:34.010Z,102560.50
2023-03-02T02:59:17.736Z,102563.47
2023-03-02T03:00:00.634Z,102558.63
2023-03-02T03:00:32.260Z,102561.06
2023-03-02T03:01:03.892Z,102558.38
2023-03-02T03:01:35.681Z,102560.25
2023-03-02T03:02:07.096Z,102561.88
2023-03-02T03:02:44.222Z,102562.66
2023-03-02T03:03:30.770Z,102549.53
2023-03-02T03:04:04.958Z,102560.25
2023-03-02T03:04:36.368Z,102558.63
2023-03-02T03:05:14.979Z,102554.34
2023-03-02T03:05:46.362Z,102552.47
2023-03-02T03:06:23.284Z,102556.22
2023-03-02T03:06:59.836Z,102557.81
2023-03-02T03:07:32.545Z,102553.53
2023-03-02T03:08:10.839Z,102561.56
2023-03-02T03:08:45.509Z,102553.78
2023-03-02T03:09:16.933Z,102553.25
2023-03-02T03:10:09.783Z,102550.31
2023-03-02T03:10:42.615Z,102554.06
2023-03-02T03:11:19.396Z,102555.66
2023-03-02T03:11:54.862Z,102551.38
2023-03-02T03:12:26.917Z,102553.50
2023-03-02T03:12:58.511Z,102555.91
2023-03-02T03:13:30.283Z,102559.41
2023-03-02T03:14:06.452Z,102558.59
2023-03-02T03:14:40.143Z,102548.94
2023-03-02T03:15:13.175Z,102552.69
2023-03-02T03:15:44.767Z,102552.94
2023-03-02T03:16:17.672Z,102546.53
2023-03-02T03:16:50.388Z,102555.13
2023-03-02T03:17:21.846Z,102564.22
2023-03-02T03:17:56.032Z,102557.25
2023-03-02T03:18:27.366Z,102561.78
2023-03-02T03:19:28.230Z,102561.78
2023-03-02T03:20:06.266Z,102555.63
2023-03-02T03:20:37.796Z,102552.16
2023-03-02T03:21:09.261Z,102557.50
2023-03-02T03:21:40.775Z,102557.50
2023-03-02T03:22:14.729Z,102559.38
2023-03-02T03:22:46.126Z,102551.34
2023-03-02T03:23:17.522Z,102548.94
2023-03-02T03:23:49.883Z,102555.88
2023-03-02T03:24:21.574Z,102555.38
2023-03-02T03:24:52.900Z,102554.56
2023-03-02T03:25:26.804Z,102552.94
2023-03-02T03:25:58.161Z,102558.31
2023-03-02T03:26:30.177Z,102558.31
2023-03-02T03:27:05.500Z,102557.50
2023-03-02T03:27:36.992Z,102559.38
2023-03-02T03:28:08.413Z,102562.84
2023-03-02T03:28:39.839Z,102555.88
2023-03-02T03:29:13.487Z,102557.75
2023-03-02T03:29:48.282Z,102552.94
2023-03-02T03:30:20.275Z,102553.75
2023-03-02T03:30:51.702Z,102544.34
2023-03-02T03:31:25.819Z,102551.88
2023-03-02T03:31:59.724Z,102561.53
2023-03-02T03:32:35.389Z,102547.84
2023-03-02T03:33:10.902Z,102554.31
2023-03-02T03:33:42.437Z,102554.56
2023-03-02T03:34:14.276Z,102551.06
2023-03-02T03:34:46.080Z,102551.63
2023-03-02T03:35:17.686Z,102551.34
2023-03-02T03:35:49.215Z,102541.69
2023-03-02T03:36:21.190Z,102550.28
2023-03-02T03:36:53.147Z,102551.34
2023-03-02T03:37:24.789Z,102554.00
2023-03-02T03:37:56.239Z,102554.00
2023-03-02T03:38:27.858Z,102557.50
2023-03-02T03:38:59.673Z,102548.66
2023-03-02T03:39:31.692Z,102552.13
2023-03-02T03:40:03.771Z,102548.66
2023-03-02T03:40:35.186Z,102546.22
2023-03-02T03:41:06.535Z,102549.72
2023-03-02T03:41:37.953Z,102548.91
2023-03-02T03:42:09.656Z,102555.06
2023-03-02T03:42:41.062Z,102556.94
2023-03-02T03:43:15.050Z,102556.13
2023-03-02T03:43:46.508Z,102554.28
2023-03-02T03:44:17.861Z,102555.34
2023-03-02T03:44:49.283Z,102550.78
2023-03-02T03:45:22.762Z,102552.91
2023-03-02T03:45:54.283Z,102550.75
2023-03-02T03:46:25.825Z,102547.56
2023-03-02T03:46:57.438Z,102560.94
2023-03-02T03:47:28.803Z,102548.63
2023-03-02T03:48:00.213Z,102551.84
2023-03-02T03:48:31.582Z,102552.09
2023-03-02T03:49:03.954Z,102555.59
2023-03-02T03:49:35.722Z,102555.84
2023-03-02T03:50:07.900Z,102552.38
2023-03-02T03:50:39.235Z,102552.38
2023-03-02T03:51:11.088Z,102557.72
2023-03-02T03:51:42.616Z,102557.72
2023-03-02T03:52:14.039Z,102548.31
2023-03-02T03:52:45.471Z,102551.00
2023-03-02T03:53:16.877Z,102557.72
2023-03-02T03:53:59.670Z,102554.22
2023-03-02T03:54:31.457Z,102556.09
2023-03-02T03:55:02.872Z,102549.69
2023-03-02T03:55:34.279Z,102547.50
2023-03-02T03:56:06.109Z,102555.84
2023-03-02T03:56:43.340Z,102549.94
2023-03-02T03:57:14.787Z,102548.31
2023-03-02T03:57:46.277Z,102556.09
2023-03-02T03:58:17.728Z,102549.13
2023-03-02T03:58:49.087Z,102552.06
2023-03-02T03:59:23.275Z,102554.50
2023-03-02T03:59:54.980Z,102556.91
2023-03-02T04:00:26.606Z,102553.44
2023-03-02T04:00:58.799Z,102564.94
2023-03-02T04:01:35.074Z,102559.03
2023-03-02T04:02:06.633Z,102545.09
2023-03-02T04:02:38.087Z,102559.03
2023-03-02T04:03:09.565Z,102552.63
2023-03-02T04:03:40.898Z,102557.16
2023-03-02T04:04:16.971Z,102563.06
2023-03-02T04:04:48.502Z,102559.84
2023-03-02T04:05:20.087Z,102555.56
2023-03-02T04:05:52.212Z,102559.28
2023-03-02T04:06:23.527Z,102562.28
2023-03-02T04:06:55.107Z,102564.13
2023-03-02T04:07:26.551Z,102565.75
2023-03-02T04:08:01.907Z,102569.25
2023-03-02T04:08:33.320Z,102576.22
2023-03-02T04:09:05.635Z,102570.03
2023-03-02T04:09:38.065Z,102571.66
2023-03-02T04:10:10.365Z,102566.06
2023-03-02T04:10:41.959Z,102564.97
2023-03-02T04:11:13.336Z,102573.28
2023-03-02T04:11:46.650Z,102566.06
2023-03-02T04:12:18.041Z,102562.56
2023-03-02T04:12:49.457Z,102566.06
2023-03-02T04:13:20.872Z,102564.19
2023-03-02T04:13:52.253Z,102561.50
2023-03-02T04:14:24.448Z,102555.59
2023-03-02T04:14:55.850Z,102550.50
2023-03-02T04:15:27.349Z,102560.44
2023-03-02T04:15:58.771Z,102560.69
2023-03-02T04:16:30.868Z,102556.13
2023-03-02T04:17:05.238Z,102556.94
2023-03-02T04:17:36.618Z,102554.28
2023-03-02T04:18:08.050Z,102559.63
2023-03-02T04:18:39.434Z,102551.84
2023-03-02T04:19:12.066Z,102551.84
2023-03-02T04:19:43.436Z,102556.13
2023-03-02T04:20:18.470Z,102545.94
2023-03-02T04:20:49.943Z,102552.91
2023-03-02T04:21:21.991Z,102558.00
2023-03-02T04:21:55.057Z,102555.34
2023-03-02T04:22:27.132Z,102559.63
2023-03-02T04:22:58.828Z,102552.91
2023-03-02T04:23:30.241Z,102551.84
2023-03-02T04:24:01.663Z,102552.91
2023-03-02T04:24:34.027Z,102551.84
2023-03-02T04:25:05.881Z,102547.28
2023-03-02T04:25:37.313Z,102552.91
2023-03-02T04:26:08.660Z,102547.56
2023-03-02T04:26:42.496Z,102548.63
2023-03-02T04:27:14.522Z,102553.47
2023-03-02T04:27:50.589Z,102554.28
2023-03-02T04:28:22.244Z,102557.19
2023-03-02T04:28:53.772Z,102552.41
2023-03-02T04:29:25.154Z,102555.34
2023-03-02T04:29:56.602Z,102544.06
2023-03-02T04:30:28.257Z,102546.50
2023-03-02T04:30:59.805Z,102553.47
2023-03-02T04:31:31.358Z,102554.28
2023-03-02T04:32:03.592Z,102554.28
2023-03-02T04:32:35.143Z,102555.06
2023-03-02T04:33:06.656Z,102554.53
2023-03-02T04:33:39.132Z,102553.47
2023-03-02T04:34:10.582Z,102555.06
2023-03-02T04:34:41.998Z,102555.06
2023-03-02T04:35:14.227Z,102549.72
2023-03-02T04:35:45.661Z,102556.69
2023-03-02T04:36:17.729Z,102556.69
2023-03-02T04:36:49.097Z,102549.16
2023-03-02T04:37:20.483Z,102549.16
2023-03-02T04:37:52.201Z,102557.50
2023-03-02T04:38:23.659Z,102553.19
2023-03-02T04:38:55.046Z,102556.13
2023-03-02T04:39:26.426Z,102555.88
2023-03-02T04:39:57.786Z,102551.84
2023-03-02T04:40:29.627Z,102549.44
2023-03-02T04:41:00.991Z,102553.47
2023-03-02T04:41:32.491Z,102550.22
2023-03-02T04:42:03.963Z,102549.16
2023-03-02T04:42:35.770Z,102557.75
2023-03-02T04:43:07.278Z,102549.69
2023-03-02T04:43:38.745Z,102553.47
2023-03-02T04:44:10.137Z,102551.03
2023-03-02T04:44:41.539Z,102555.34
2023-03-02T04:45:13.570Z,102548.38
2023-03-02T04:45:44.940Z,102551.84
2023-03-02T04:46:21.516Z,102551.84
2023-03-02T04:46:52.992Z,102550.22
2023-03-02T04:47:24.486Z,102547.81
2023-03-02T04:47:55.964Z,102552.63
2023-03-02T04:48:27.465Z,102553.16
2023-03-02T04:48:58.859Z,102554.78
2023-03-02T04:49:30.194Z,102556.91
2023-03-02T04:50:01.583Z,102558.78
2023-03-02T04:50:33.894Z,102557.72
2023-03-02T04:51:05.591Z,102556.09
2023-03-02T04:51:40.303Z,102554.22
2023-03-02T04:52:11.797Z,102554.22
2023-03-02T04:52:43.244Z,102552.06
2023-03-02T04:53:14.912Z,102551.25
2023-03-02T04:53:46.246Z,102547.50
2023-03-02T04:54:26.171Z,102561.47
2023-03-02T04:54:57.843Z,102558.22
2023-03-02T04:55:29.243Z,102553.94
2023-03-02T04:56:00.817Z,102556.63
2023-03-02T04:56:33.104Z,102563.59
2023-03-02T04:57:04.666Z,102550.44
2023-03-02T04:57:36.073Z,102558.75
2023-03-02T04:58:08.492Z,102561.44
2023-03-02T04:58:39.869Z,102559.81
2023-03-02T04:59:11.265Z,102553.13
2023-03-02T04:59:42.652Z,102557.38
2023-03-02T05:00:15.485Z,102559.25
2023-03-02T05:00:46.878Z,102554.72
2023-03-02T05:01:19.971Z,102548.84
2023-03-02T05:01:56.677Z,102558.19
2023-03-02T05:02:28.129Z,102556.56
2023-03-02T05:03:00.170Z,102552.03
2023-03-02T05:03:31.567Z,102556.56
2023-03-02T05:04:03.285Z,102553.13
2023-03-02T05:04:34.776Z,102556.56
2023-03-02T05:05:06.500Z,102553.91
2023-03-02T05:05:38.033Z,102545.88
2023-03-02T05:06:09.814Z,102553.38
2023-03-02T05:06:41.358Z,102553.38
2023-03-02T05:07:12.790Z,102556.88
2023-03-02T05:07:44.685Z,102547.47
2023-03-02T05:08:16.841Z,102550.16
2023-03-02T05:08:48.754Z,102547.47
2023-03-02T05:09:21.166Z,102551.22
2023-03-02T05:09:52.548Z,102553.91
2023-03-02T05:10:27.335Z,102547.19
2023-03-02T05:10:58.709Z,102538.34
2023-03-02T05:11:30.969Z,102541.81
2023-03-02T05:12:02.573Z,102547.19
2023-03-02T05:12:53.924Z,102542.88
2023-03-02T05:13:25.986Z,102555.22
2023-03-02T05:14:00.251Z,102548.25
2023-03-02T05:14:32.174Z,102552.78
2023-03-02T05:15:03.855Z,102552.78
2023-03-02T05:15:37.913Z,102550.38
2023-03-02T05:16:09.359Z,102545.25
2023-03-02T05:16:41.899Z,102548.75
2023-03-02T05:17:13.915Z,102545.00
2023-03-02T05:17:45.382Z,102550.38
2023-03-02T05:18:16.965Z,102546.88
2023-03-02T05:18:48.753Z,102546.06
2023-03-02T05:19:20.204Z,102548.75
2023-03-02T05:19:51.652Z,102551.44
2023-03-02T05:20:30.116Z,102550.63
2023-03-02T05:21:01.742Z,102549.00
2023-03-02T05:21:33.657Z,102553.31
2023-03-02T05:22:05.121Z,102551.69
2023-03-02T05:22:36.489Z,102547.13
2023-03-02T05:23:09.928Z,102556.22
2023-03-02T05:23:42.067Z,102553.81
2023-03-02T05:24:14.349Z,102544.97
2023-03-02T05:24:45.738Z,102547.09
2023-03-02T05:25:17.227Z,102547.09
2023-03-02T05:25:48.977Z,102544.69
2023-03-02T05:26:20.634Z,102544.69
2023-03-02T05:26:51.988Z,102543.09
2023-03-02T05:27:23.361Z,102538.53
2023-03-02T05:27:54.836Z,102541.47
2023-03-02T05:28:26.940Z,102540.94
2023-03-02T05:28:58.366Z,102545.22
2023-03-02T05:29:29.747Z,102541.22
2023-03-02T05:30:01.128Z,102546.84
2023-03-02T05:30:37.350Z,102541.22
2023-03-02T05:31:09.605Z,102546.84
2023-03-02T05:31:43.794Z,102542.28
2023-03-02T05:32:15.264Z,102545.22
2023-03-02T05:32:46.749Z,102550.59
2023-03-02T05:33:19.021Z,102546.28
2023-03-02T05:33:50.544Z,102544.41
2023-03-02T05:34:22.024Z,102541.75
2023-03-02T05:34:53.444Z,102546.03
2023-03-02T05:35:24.856Z,102551.38
2023-03-02T05:35:56.581Z,102552.44
2023-03-02T05:36:28.116Z,102551.66
2023-03-02T05:36:59.444Z,102552.44
2023-03-02T05:37:30.859Z,102550.59
2023-03-02T05:38:02.679Z,102551.66
2023-03-02T05:38:34.442Z,102546.28
2023-03-02T05:39:06.747Z,102548.97
2023-03-02T05:39:39.359Z,102554.31
2023-03-02T05:40:13.755Z,102550.03
2023-03-02T05:40:45.598Z,102553.81
2023-03-02T05:41:17.012Z,102552.19
2023-03-02T05:41:48.562Z,102547.34
2023-03-02T05:42:19.917Z,102550.31
2023-03-02T05:42:51.556Z,102542.28
2023-03-02T05:43:23.466Z,102544.16
2023-03-02T05:43:55.158Z,102541.19
2023-03-02T05:44:26.479Z,102549.75
2023-03-02T05:44:57.797Z,102538.25
2023-03-02T05:45:35.100Z,102540.13
2023-03-02T05:46:06.500Z,102540.91
2023-03-02T05:46:38.309Z,102543.84
2023-03-02T05:47:09.852Z,102542.78
2023-03-02T05:47:41.281Z,102543.84
2023-03-02T05:48:14.080Z,102549.75
2023-03-02T05:48:46.505Z,102551.63
2023-03-02T05:49:18.001Z,102544.66
2023-03-02T05:49:49.454Z,102545.72
2023-03-02T05:50:20.850Z,102544.91
2023-03-02T05:50:52.382Z,102536.06
2023-03-02T05:51:23.822Z,102547.59
2023-03-02T05:51:55.482Z,102548.66
2023-03-02T05:52:26.855Z,102545.97
2023-03-02T05:53:00.192Z,102543.31
2023-03-02T05:53:31.622Z,102540.31
2023-03-02T05:54:03.092Z,102545.16
2023-03-02T05:54:34.433Z,102539.25
2023-03-02T05:55:06.365Z,102540.31
2023-03-02T05:55:37.753Z,102537.66
2023-03-02T05:56:09.274Z,102543.56
2023-03-02T05:56:40.817Z,102537.91
2023-03-02T05:57:12.583Z,102542.75
2023-03-02T05:57:44.640Z,102544.63
2023-03-02T05:58:18.464Z,102540.31
2023-03-02T05:58:49.916Z,102539.53
2023-03-02T05:59:21.368Z,102539.53
2023-03-02T05:59:52.799Z,102538.16
2023-03-02T06:00:24.435Z,102542.44
2023-03-02T06:00:55.860Z,102546.75
2023-03-02T06:01:27.468Z,102547.56
2023-03-02T06:01:59.457Z,102550.47
2023-03-02T06:02:31.090Z,102550.22
2023-03-02T06:03:02.569Z,102553.16
2023-03-02T06:03:33.945Z,102548.63
2023-03-02T06:04:05.594Z,102546.19
2023-03-02T06:04:42.870Z,102548.63
2023-03-02T06:05:19.184Z,102551.53
2023-03-02T06:05:52.312Z,102551.53
2023-03-02T06:06:23.693Z,102548.88
2023-03-02T06:06:55.123Z,102556.09
2023-03-02T06:07:27.281Z,102552.59
2023-03-02T06:07:58.680Z,102550.75
2023-03-02T06:08:30.066Z,102555.53
2023-03-02T06:09:01.502Z,102554.47
2023-03-02T06:09:32.887Z,102548.81
2023-03-02T06:10:06.439Z,102553.66
2023-03-02T06:10:37.813Z,102553.91
2023-03-02T06:11:10.427Z,102551.00
2023-03-02T06:11:42.045Z,102550.72
2023-03-02T06:12:13.410Z,102551.25
2023-03-02T06:12:44.796Z,102547.75
2023-03-02T06:13:16.542Z,102551.50
2023-03-02T06:13:48.003Z,102553.41
2023-03-02T06:14:19.341Z,102555.28
2023-03-02T06:14:50.790Z,102548.28
2023-03-02T06:15:22.530Z,102556.59
2023-03-02T06:15:53.903Z,102549.63
2023-03-02T06:16:25.384Z,102555.22
2023-03-02T06:16:56.869Z,102562.19
2023-03-02T06:17:28.221Z,102554.16
2023-03-02T06:17:59.683Z,102561.38
2023-03-02T06:18:31.074Z,102562.44